Het weer levert geen direct gevaar op.    Er zijn geen waarschuwingen afgegeven.


Onweer radar Meer informatie blitzortung!


Regen radar Meer informatie rain snow radar


Bezoek onze andere website:

Template documentation
and downloads

And another site



Select another period ( hide this area )

Eenheden Periode Custom range Directly to
Metrisch Engels Beide
Dagelijkse Wekelijkse Maandelijkse Jaarlijkse
use both date-selectors for a custom range
previous Dag
With this date

WeatherUnderground graphs for this period ( click here )


Dagelijkse Samenvatting Vrijdag 25 mei 2018
Tijd Temp. ( °C ) Dew pt. ( °C ) Wind ( km/h ) van Windvlaag ( km/h ) Luchtdruk ( hPa ) Humid.( % ) Rainrate ( cm )
Hoog24,3 18,3 20,9 ONO ( 899/1935 ) 20,9 1018,2 96 7,10
Gemiddeld19,8 16,3 9,5 ONO #94/203 9,7 1017,4 81 6,70
Laag16,5 14,7 -   0,0 1016,8 64 -
Dagelijkse Tabular details for Vrijdag 25 mei 2018
Tijd Temp. ( °C ) Dew pt. ( °C ) Wind ( km/h ) van Windvlaag ( km/h ) Luchtdruk ( hPa ) Humid.( % ) Rainrate ( cm )
00:03 19,4 14,7 11,1 ONO 11,1 1017,5 74 -
00:08 19,4 14,7 14,8 ONO 14,8 1017,2 74 -
00:13 19,4 14,8 11,3 NO 12,7 1017,5 75 -
00:18 19,4 14,8 17,7 ONO 17,7 1017,5 75 -
00:23 19,3 15,0 19,3 Oosten 19,3 1017,5 76 -
00:29 19,2 15,1 7,4 NO 8,0 1017,5 77 -
00:34 19,1 15,2 7,4 ONO 7,4 1017,5 78 -
00:39 19,0 15,1 16,7 ONO 16,7 1017,5 78 -
00:44 18,9 15,2 18,5 ONO 18,5 1017,5 79 -
00:49 18,8 15,1 6,4 Oosten 6,4 1017,5 79 -
00:54 18,7 15,2 9,3 NO 9,3 1017,5 80 -
00:59 18,7 15,2 7,4 NO 7,4 1017,5 80 -
01:04 18,6 15,1 9,3 Oosten 9,3 1017,5 80 -
01:09 18,6 15,3 5,6 ONO 5,6 1017,5 81 -
01:14 18,6 15,2 8,0 Oosten 8,0 1017,2 81 -
01:19 18,6 15,2 7,4 NNO 7,4 1017,2 81 -
01:24 18,4 15,3 11,1 NO 11,1 1017,2 82 -
01:29 18,3 15,2 12,9 Oosten 12,9 1017,2 82 -
01:34 18,3 15,2 11,1 ONO 11,1 1017,2 82 -
01:39 18,2 15,2 12,9 ONO 12,9 1017,2 83 -
01:44 18,1 15,2 5,6 ONO 5,6 1017,2 83 -
01:49 18,1 15,2 8,0 ONO 8,0 1017,2 83 -
01:54 18,1 15,3 11,1 Oosten 11,1 1017,2 84 -
01:59 18,1 15,3 11,3 ONO 11,3 1016,8 84 -
02:04 18,1 15,3 8,0 ONO 8,0 1017,2 84 -
02:09 18,1 15,3 11,1 ONO 11,1 1017,2 84 -
02:14 18,1 15,1 9,3 ONO 9,3 1016,8 83 -
02:19 18,1 15,2 5,6 Oosten 5,6 1016,8 83 -
02:24 18,1 15,2 5,6 Oosten 5,6 1016,8 83 -
02:29 18,1 15,2 7,4 ONO 7,4 1016,8 83 -
02:34 18,2 15,1 14,8 Oosten 14,8 1016,8 82 -
02:39 18,2 15,1 5,6 ONO 5,6 1016,8 82 -
02:44 18,3 14,9 11,1 ONO 11,1 1016,8 81 -
02:49 18,3 15,2 7,4 Oosten 7,4 1016,8 82 -
02:54 18,3 15,4 14,8 ONO 14,8 1016,8 83 -
02:59 18,2 15,3 7,4 Oosten 7,4 1016,8 83 -
03:04 18,1 15,2 3,7 ONO 3,7 1016,8 83 -
03:09 18,1 15,4 5,6 ONO 5,6 1016,8 84 -
03:14 18,1 15,5 5,6 ZO 5,6 1017,2 85 0,50
03:19 17,9 15,6 5,6 Zuiden 5,6 1017,2 86 2,30
03:24 17,7 15,6 5,6 ONO 5,6 1017,2 87 3,30
03:29 17,6 15,6 7,4 NNO 7,4 1017,2 88 4,10
03:34 17,3 15,5 11,3 OZO 11,3 1016,8 89 5,10
03:39 17,2 15,5 7,4 ONO 7,4 1016,8 90 6,30
03:44 17,1 15,4 3,7 Oosten 3,7 1016,8 90 6,90
03:49 17,0 15,5 3,7 Oosten 3,7 1016,8 91 6,90
03:54 17,0 15,5   Kalm   1016,8 91 6,90
03:59 17,0 15,5   Kalm   1016,8 91 6,90
04:04 17,0 15,7 5,6 Oosten 5,6 1016,8 92 6,90
04:09 17,0 15,7 3,7 Oosten 3,7 1016,8 92 7,10
04:14 16,9 15,6 6,4 ONO 6,4 1016,8 92 6,60
04:19 16,9 15,6 5,6 ONO 5,6 1016,8 92 5,30
04:24 16,9 15,6 5,6 ONO 5,6 1016,8 92 4,30
04:29 16,9 15,6 5,6 Oosten 5,6 1016,8 92 4,10
04:34 16,9 15,6 5,6 ONO 5,6 1016,8 92 2,80
04:39 16,8 15,7 5,6 ONO 5,6 1016,8 93 1,50
04:44 16,8 15,7 7,4 ONO 7,4 1016,8 93 1,30
04:49 16,8 15,7 7,4 ONO 7,4 1016,8 93 1,30
04:54 16,8 15,7 6,4 OZO 6,4 1016,8 93 1,30
04:59 16,7 15,6 13,0 NO 13,0 1016,8 93 2,00
05:04 16,7 15,6 3,7 ONO 3,7 1016,8 93 2,00
05:09 16,6 15,5 6,4 ONO 6,4 1016,8 93 1,50
05:15 16,6 15,5 6,4 ONO 6,4 1016,8 93 1,50
05:20 16,6 15,4 5,6 ONO 5,6 1016,8 93 1,00
05:25 16,6 15,4 3,2 ONO 8,0 1016,8 93 -
05:30 16,6 15,5 5,6 ONO 5,6 1016,8 93 0,80
05:35 16,6 15,6 5,6 ONO 5,6 1016,8 94 0,80
05:40 16,6 15,6 5,6 ONO 5,6 1016,8 94 0,80
05:45 16,6 15,6 5,6 ONO 5,6 1016,8 94 0,80
05:50 16,5 15,6 8,0 ONO 12,9 1016,8 94 -
05:55 16,5 15,6 5,6 ONO 5,6 1016,8 94 0,50
06:00 16,5 15,6 5,6 NO 5,6 1016,8 94 -
06:05 16,5 15,6 5,6 ONO 5,6 1016,8 94 -
06:10 16,6 15,6 7,4 ONO 7,4 1016,8 94 -
06:15 16,6 15,6 5,6 ONO 5,6 1016,8 94 -
06:20 16,6 15,6 5,6 ONO 5,6 1016,8 94 -
06:25 16,6 15,7 7,4 ONO 7,4 1016,8 94 -
06:30 16,6 15,7 5,6 ONO 5,6 1016,8 94 -
06:35 16,7 15,7 9,7 ONO 9,7 1016,8 94 -
06:40 16,7 15,7 9,3 Oosten 9,3 1016,8 94 -
06:45 16,7 15,7 6,4 Oosten 6,4 1016,8 94 -
06:50 16,7 15,8 13,0 ONO 13,0 1016,8 94 -
06:55 16,7 15,8 11,1 ONO 11,1 1016,8 94 -
07:00 16,8 15,8 13,0 NO 13,0 1016,8 94 -
07:05 16,8 15,8 9,3 ONO 9,3 1016,8 94 -
07:10 16,8 16,2 11,1 NO 11,1 1016,8 96 -
07:15 16,8 15,9 11,1 ONO 11,1 1016,8 94 -
07:20 16,9 15,9 9,3 ONO 9,3 1016,8 94 -
07:25 17,0 16,0 4,8 OZO 4,8 1016,8 94 -
07:30 17,1 16,1 5,6 ONO 5,6 1016,8 94 -
07:35 17,3 16,3 5,6 NO 5,6 1016,8 94 -
07:40 17,5 16,5 6,4 NO 6,4 1017,2 94 -
07:45 17,6 16,6 5,6 OZO 5,6 1017,2 94 -
07:50 17,6 16,4 8,0 ONO 8,0 1017,2 93 -
07:55 17,5 16,3 7,4 NO 7,4 1017,2 93 -
08:00 17,6 16,3 9,3 OZO 9,3 1017,2 92 -
08:05 17,7 16,4 3,7 Oosten 3,7 1017,2 92 -
08:10 17,7 16,4 9,3 NO 9,3 1017,2 92 -
08:15 17,8 16,3 9,3 OZO 9,3 1017,5 91 -
08:20 17,8 16,3 6,4 ONO 6,4 1017,5 91 -
08:25 17,8 16,3 9,3 ZO 9,3 1017,5 91 -
08:30 17,8 16,3 13,0 Oosten 13,0 1017,5 91 -
08:35 17,8 16,2 7,4 Oosten 7,4 1017,5 90 -
08:40 17,8 16,2 9,3 ONO 9,3 1017,5 90 -
08:45 17,9 16,2 11,3 Oosten 11,3 1017,5 90 -
08:50 17,9 16,1 5,6 ONO 6,0 1017,5 89 -
08:55 17,9 16,3 5,6 ONO 5,6 1017,5 90 -
09:00 18,0 16,2 9,3 ONO 9,3 1017,8 89 -
09:05 18,1 16,3 5,6 ZO 5,6 1017,8 89 -
09:10 18,2 16,2 9,3 ONO 9,3 1017,8 88 -
09:15 18,4 16,4 5,6 NO 5,6 1017,8 88 -
09:20 18,5 16,3 5,6 NNO 5,6 1017,8 87 -
09:25 18,6 16,4 5,6 OZO 5,6 1017,8 87 -
09:30 18,8 16,6 5,6 NO 5,6 1017,8 87 -
09:35 19,1 16,8 3,7 Oosten 3,7 1017,8 87 -
09:40 19,2 16,6 5,6 Oosten 5,6 1017,8 85 -
09:45 19,3 16,7 5,6 ZO 5,6 1017,8 85 -
09:50 19,3 16,7 7,4 ZO 7,4 1017,8 85 -
09:56 19,3 16,7 5,6 Oosten 5,6 1017,8 85 -
10:01 19,4 16,8 3,7 Oosten 3,7 1017,8 85 -
10:06 19,6 16,9 3,7 Oosten 3,7 1017,8 85 -
10:11 19,7 16,9 5,6 NO 5,6 1017,8 84 -
10:16 19,8 17,1 3,7 ONO 3,7 1017,8 84 -
10:21 19,9 17,1 3,7 Oosten 3,7 1017,8 84 -
10:26 20,1 17,3 7,4 ONO 7,4 1017,8 84 -
10:31 20,4 17,4 9,3 Oosten 9,3 1017,5 83 -
10:36 20,7 17,1 14,8 Oosten 14,8 1017,8 80 -
10:41 20,9 17,3 16,7 ONO 16,7 1017,8 80 -
10:46 21,1 17,3 6,4 NO 6,4 1017,8 79 -
10:51 21,2 17,2 18,5 ONO 18,5 1017,8 78 -
10:56 21,1 17,3 5,6 ONO 5,6 1017,8 79 -
11:01 21,1 17,3 9,3 NO 9,3 1017,8 79 -
11:06 21,1 17,1 9,3 NO 9,3 1018,2 78 -
11:11 21,2 17,4 11,3 ONO 11,3 1017,8 79 -
11:16 21,3 17,3 5,6 Zuiden 5,6 1017,8 78 -
11:21 21,6 17,6 11,3 ZO 11,3 1017,8 78 -
11:26 21,9 17,4 13,0 ONO 13,0 1017,8 76 -
11:31 22,1 17,8 11,3 ONO 11,3 1017,8 77 -
11:36 22,3 17,6 14,8 NO 14,8 1017,8 75 -
11:41 22,3 17,6 9,3 Oosten 9,3 1017,8 75 -
11:46 22,1 17,3 11,1 ONO 11,1 1017,8 74 -
11:51 21,9 17,1 13,0 Oosten 13,0 1017,8 74 -
11:56 21,9 17,3 13,0 NO 13,0 1017,8 75 -
12:01 22,0 17,2 13,0 ZO 13,0 1017,8 74 -
12:06 22,1 17,1 14,8 ONO 14,8 1017,8 73 -
12:11 22,2 17,4 13,0 ONO 13,0 1017,8 74 -
12:16 22,3 17,0 14,8 NO 14,8 1017,8 72 -
12:21 22,3 17,2 11,3 NO 11,3 1018,2 73 -
12:26 22,4 17,4 9,3 ONO 9,3 1018,2 73 -
12:31 22,7 17,1 9,3 ONO 9,3 1018,2 71 -
12:36 22,7 16,9 16,7 NNO 16,7 1018,2 70 -
12:41 22,5 17,0 13,0 ONO 13,0 1017,8 71 -
12:46 22,6 16,8 5,6 ZW 5,6 1017,8 70 -
12:51 22,8 17,0 8,0 ONO 8,0 1017,8 70 -
12:56 22,9 16,7 7,4 Noorden 7,4 1017,8 68 -
13:01 22,9 16,9 14,8 ONO 14,8 1017,8 69 -
13:06 22,8 17,1 5,6 Oosten 5,6 1017,8 70 -
13:11 22,9 16,9 7,4 NNO 7,4 1017,8 69 -
13:16 23,2 16,9 9,3 NO 9,3 1017,8 68 -
13:21 23,4 16,5 6,4 NO 6,4 1017,8 65 -
13:23 23,5 16,6 5,6 NO 5,6 1017,8 65 -
13:28 23,8 17,1 14,8 WZW 14,8 1017,8 66 -
13:33 23,8 16,6 11,1 Oosten 11,1 1017,8 64 -
13:38 23,9 16,9 5,6 ONO 5,6 1017,8 65 -
13:43 24,1 17,6 9,3 ONO 9,3 1017,8 67 -
13:48 23,8 17,3 16,7 NO 16,7 1017,8 67 -
13:53 23,3 17,3 11,1 NO 11,1 1017,8 69 -
13:58 23,2 17,4 14,8 NO 14,8 1017,8 70 -
14:03 23,2 17,4 11,1 NO 11,1 1017,8 70 -
14:08 23,2 17,2 14,8 Oosten 14,8 1017,8 69 -
14:13 23,2 17,2 14,8 ONO 14,8 1017,8 69 -
14:18 23,2 17,2 18,5 NO 18,5 1017,8 69 -
14:23 23,1 17,1 14,8 OZO 14,8 1017,8 69 -
14:28 23,1 17,3 14,5 ONO 14,5 1017,8 70 -
14:33 23,1 17,1 12,9 NO 12,9 1017,8 69 -
14:39 23,1 17,3 14,8 ONO 14,8 1017,8 70 -
14:44 23,4 17,4 18,5 NNO 18,5 1017,8 69 -
14:49 23,8 18,0 18,5 NNO 18,5 1017,8 70 -
14:54 23,8 17,6 16,7 NO 16,7 1017,8 68 -
14:59 23,7 17,7 6,4 ONO 6,4 1017,8 69 -
15:04 23,7 17,9 9,3 NO 9,3 1017,8 70 -
15:09 23,9 18,3 14,5 ONO 14,5 1017,8 71 -
15:14 24,1 18,0 14,5 ONO 14,5 1017,8 69 -
15:19 24,2 18,1 16,7 Oosten 16,7 1017,8 69 -
15:24 24,3 18,0 18,5 ONO 18,5 1017,8 68 -
15:29 24,2 17,9 20,9 ONO 20,9 1017,8 68 -
15:34 24,2 17,9 16,7 OZO 16,7 1017,8 68 -
15:39 24,2 17,7 16,7 Noorden 16,7 1017,8 67 -
15:45 24,1 17,3 14,8 NO 14,8 1017,8 66 -
15:50 23,8 17,6 16,7 NNO 16,7 1017,8 68 -
15:55 23,8 17,5 8,0 ONO 19,3 1017,8 68 -
16:00 23,9 17,4 11,3 ONO 16,1 1017,8 67 -
16:05 23,9 17,7 11,1 ONO 11,1 1017,8 68 -
16:10 24,1 17,6 11,3 ONO 11,3 1017,8 67 -
16:15 24,2 17,7 14,8 NO 14,8 1017,8 67 -
16:20 24,2 17,7 13,0 ONO 13,0 1017,8 67 -
16:25 24,1 17,3 16,1 ONO 16,1 1017,8 66 -
16:30 23,9 17,2 18,5 ONO 18,5 1017,8 66 -
16:35 23,8 17,3 9,3 NNO 9,3 1017,8 67 -
16:40 23,8 17,1 14,8 Oosten 14,8 1017,8 66 -
16:45 23,8 17,3 11,1 Oosten 11,1 1017,8 67 -
16:50 23,8 17,3 16,7 NO 16,7 1017,8 67 -
16:55 23,6 17,1 11,3 NNO 11,3 1018,2 67 -
Dagelijkse Samenvatting Vrijdag 25 mei 2018
Tijd Temp. ( °C ) Dew pt. ( °C ) Wind ( km/h ) van Windvlaag ( km/h ) Luchtdruk ( hPa ) Humid.( % ) Rainrate ( cm )
Hoog24,3 18,3 20,9 ONO ( 899/1935 ) 20,9 1018,2 96 7,10
Gemiddeld19,8 16,3 9,5 ONO #94/203 9,7 1017,4 81 6,70
Laag16,5 14,7 -   0,0 1016,8 64 -
Dagelijkse Tabular details for Vrijdag 25 mei 2018
Tijd Temp. ( °C ) Dew pt. ( °C ) Wind ( km/h ) van Windvlaag ( km/h ) Luchtdruk ( hPa ) Humid.( % ) Rainrate ( cm )
00:03 19,4 14,7 11,1 ONO 11,1 1017,5 74 -
00:08 19,4 14,7 14,8 ONO 14,8 1017,2 74 -
00:13 19,4 14,8 11,3 NO 12,7 1017,5 75 -
00:18 19,4 14,8 17,7 ONO 17,7 1017,5 75 -
00:23 19,3 15,0 19,3 Oosten 19,3 1017,5 76 -
00:29 19,2 15,1 7,4 NO 8,0 1017,5 77 -
00:34 19,1 15,2 7,4 ONO 7,4 1017,5 78 -
00:39 19,0 15,1 16,7 ONO 16,7 1017,5 78 -
00:44 18,9 15,2 18,5 ONO 18,5 1017,5 79 -
00:49 18,8 15,1 6,4 Oosten 6,4 1017,5 79 -
00:54 18,7 15,2 9,3 NO 9,3 1017,5 80 -
00:59 18,7 15,2 7,4 NO 7,4 1017,5 80 -
01:04 18,6 15,1 9,3 Oosten 9,3 1017,5 80 -
01:09 18,6 15,3 5,6 ONO 5,6 1017,5 81 -
01:14 18,6 15,2 8,0 Oosten 8,0 1017,2 81 -
01:19 18,6 15,2 7,4 NNO 7,4 1017,2 81 -
01:24 18,4 15,3 11,1 NO 11,1 1017,2 82 -
01:29 18,3 15,2 12,9 Oosten 12,9 1017,2 82 -
01:34 18,3 15,2 11,1 ONO 11,1 1017,2 82 -
01:39 18,2 15,2 12,9 ONO 12,9 1017,2 83 -
01:44 18,1 15,2 5,6 ONO 5,6 1017,2 83 -
01:49 18,1 15,2 8,0 ONO 8,0 1017,2 83 -
01:54 18,1 15,3 11,1 Oosten 11,1 1017,2 84 -
01:59 18,1 15,3 11,3 ONO 11,3 1016,8 84 -
02:04 18,1 15,3 8,0 ONO 8,0 1017,2 84 -
02:09 18,1 15,3 11,1 ONO 11,1 1017,2 84 -
02:14 18,1 15,1 9,3 ONO 9,3 1016,8 83 -
02:19 18,1 15,2 5,6 Oosten 5,6 1016,8 83 -
02:24 18,1 15,2 5,6 Oosten 5,6 1016,8 83 -
02:29 18,1 15,2 7,4 ONO 7,4 1016,8 83 -
02:34 18,2 15,1 14,8 Oosten 14,8 1016,8 82 -
02:39 18,2 15,1 5,6 ONO 5,6 1016,8 82 -
02:44 18,3 14,9 11,1 ONO 11,1 1016,8 81 -
02:49 18,3 15,2 7,4 Oosten 7,4 1016,8 82 -
02:54 18,3 15,4 14,8 ONO 14,8 1016,8 83 -
02:59 18,2 15,3 7,4 Oosten 7,4 1016,8 83 -
03:04 18,1 15,2 3,7 ONO 3,7 1016,8 83 -
03:09 18,1 15,4 5,6 ONO 5,6 1016,8 84 -
03:14 18,1 15,5 5,6 ZO 5,6 1017,2 85 0,50
03:19 17,9 15,6 5,6 Zuiden 5,6 1017,2 86 2,30
03:24 17,7 15,6 5,6 ONO 5,6 1017,2 87 3,30
03:29 17,6 15,6 7,4 NNO 7,4 1017,2 88 4,10
03:34 17,3 15,5 11,3 OZO 11,3 1016,8 89 5,10
03:39 17,2 15,5 7,4 ONO 7,4 1016,8 90 6,30
03:44 17,1 15,4 3,7 Oosten 3,7 1016,8 90 6,90
03:49 17,0 15,5 3,7 Oosten 3,7 1016,8 91 6,90
03:54 17,0 15,5   Kalm   1016,8 91 6,90
03:59 17,0 15,5   Kalm   1016,8 91 6,90
04:04 17,0 15,7 5,6 Oosten 5,6 1016,8 92 6,90
04:09 17,0 15,7 3,7 Oosten 3,7 1016,8 92 7,10
04:14 16,9 15,6 6,4 ONO 6,4 1016,8 92 6,60
04:19 16,9 15,6 5,6 ONO 5,6 1016,8 92 5,30
04:24 16,9 15,6 5,6 ONO 5,6 1016,8 92 4,30
04:29 16,9 15,6 5,6 Oosten 5,6 1016,8 92 4,10
04:34 16,9 15,6 5,6 ONO 5,6 1016,8 92 2,80
04:39 16,8 15,7 5,6 ONO 5,6 1016,8 93 1,50
04:44 16,8 15,7 7,4 ONO 7,4 1016,8 93 1,30
04:49 16,8 15,7 7,4 ONO 7,4 1016,8 93 1,30
04:54 16,8 15,7 6,4 OZO 6,4 1016,8 93 1,30
04:59 16,7 15,6 13,0 NO 13,0 1016,8 93 2,00
05:04 16,7 15,6 3,7 ONO 3,7 1016,8 93 2,00
05:09 16,6 15,5 6,4 ONO 6,4 1016,8 93 1,50
05:15 16,6 15,5 6,4 ONO 6,4 1016,8 93 1,50
05:20 16,6 15,4 5,6 ONO 5,6 1016,8 93 1,00
05:25 16,6 15,4 3,2 ONO 8,0 1016,8 93 -
05:30 16,6 15,5 5,6 ONO 5,6 1016,8 93 0,80
05:35 16,6 15,6 5,6 ONO 5,6 1016,8 94 0,80
05:40 16,6 15,6 5,6 ONO 5,6 1016,8 94 0,80
05:45 16,6 15,6 5,6 ONO 5,6 1016,8 94 0,80
05:50 16,5 15,6 8,0 ONO 12,9 1016,8 94 -
05:55 16,5 15,6 5,6 ONO 5,6 1016,8 94 0,50
06:00 16,5 15,6 5,6 NO 5,6 1016,8 94 -
06:05 16,5 15,6 5,6 ONO 5,6 1016,8 94 -
06:10 16,6 15,6 7,4 ONO 7,4 1016,8 94 -
06:15 16,6 15,6 5,6 ONO 5,6 1016,8 94 -
06:20 16,6 15,6 5,6 ONO 5,6 1016,8 94 -
06:25 16,6 15,7 7,4 ONO 7,4 1016,8 94 -
06:30 16,6 15,7 5,6 ONO 5,6 1016,8 94 -
06:35 16,7 15,7 9,7 ONO 9,7 1016,8 94 -
06:40 16,7 15,7 9,3 Oosten 9,3 1016,8 94 -
06:45 16,7 15,7 6,4 Oosten 6,4 1016,8 94 -
06:50 16,7 15,8 13,0 ONO 13,0 1016,8 94 -
06:55 16,7 15,8 11,1 ONO 11,1 1016,8 94 -
07:00 16,8 15,8 13,0 NO 13,0 1016,8 94 -
07:05 16,8 15,8 9,3 ONO 9,3 1016,8 94 -
07:10 16,8 16,2 11,1 NO 11,1 1016,8 96 -
07:15 16,8 15,9 11,1 ONO 11,1 1016,8 94 -
07:20 16,9 15,9 9,3 ONO 9,3 1016,8 94 -
07:25 17,0 16,0 4,8 OZO 4,8 1016,8 94 -
07:30 17,1 16,1 5,6 ONO 5,6 1016,8 94 -
07:35 17,3 16,3 5,6 NO 5,6 1016,8 94 -
07:40 17,5 16,5 6,4 NO 6,4 1017,2 94 -
07:45 17,6 16,6 5,6 OZO 5,6 1017,2 94 -
07:50 17,6 16,4 8,0 ONO 8,0 1017,2 93 -
07:55 17,5 16,3 7,4 NO 7,4 1017,2 93 -
08:00 17,6 16,3 9,3 OZO 9,3 1017,2 92 -
08:05 17,7 16,4 3,7 Oosten 3,7 1017,2 92 -
08:10 17,7 16,4 9,3 NO 9,3 1017,2 92 -
08:15 17,8 16,3 9,3 OZO 9,3 1017,5 91 -
08:20 17,8 16,3 6,4 ONO 6,4 1017,5 91 -
08:25 17,8 16,3 9,3 ZO 9,3 1017,5 91 -
08:30 17,8 16,3 13,0 Oosten 13,0 1017,5 91 -
08:35 17,8 16,2 7,4 Oosten 7,4 1017,5 90 -
08:40 17,8 16,2 9,3 ONO 9,3 1017,5 90 -
08:45 17,9 16,2 11,3 Oosten 11,3 1017,5 90 -
08:50 17,9 16,1 5,6 ONO 6,0 1017,5 89 -
08:55 17,9 16,3 5,6 ONO 5,6 1017,5 90 -
09:00 18,0 16,2 9,3 ONO 9,3 1017,8 89 -
09:05 18,1 16,3 5,6 ZO 5,6 1017,8 89 -
09:10 18,2 16,2 9,3 ONO 9,3 1017,8 88 -
09:15 18,4 16,4 5,6 NO 5,6 1017,8 88 -
09:20 18,5 16,3 5,6 NNO 5,6 1017,8 87 -
09:25 18,6 16,4 5,6 OZO 5,6 1017,8 87 -
09:30 18,8 16,6 5,6 NO 5,6 1017,8 87 -
09:35 19,1 16,8 3,7 Oosten 3,7 1017,8 87 -
09:40 19,2 16,6 5,6 Oosten 5,6 1017,8 85 -
09:45 19,3 16,7 5,6 ZO 5,6 1017,8 85 -
09:50 19,3 16,7 7,4 ZO 7,4 1017,8 85 -
09:56 19,3 16,7 5,6 Oosten 5,6 1017,8 85 -
10:01 19,4 16,8 3,7 Oosten 3,7 1017,8 85 -
10:06 19,6 16,9 3,7 Oosten 3,7 1017,8 85 -
10:11 19,7 16,9 5,6 NO 5,6 1017,8 84 -
10:16 19,8 17,1 3,7 ONO 3,7 1017,8 84 -
10:21 19,9 17,1 3,7 Oosten 3,7 1017,8 84 -
10:26 20,1 17,3 7,4 ONO 7,4 1017,8 84 -
10:31 20,4 17,4 9,3 Oosten 9,3 1017,5 83 -
10:36 20,7 17,1 14,8 Oosten 14,8 1017,8 80 -
10:41 20,9 17,3 16,7 ONO 16,7 1017,8 80 -
10:46 21,1 17,3 6,4 NO 6,4 1017,8 79 -
10:51 21,2 17,2 18,5 ONO 18,5 1017,8 78 -
10:56 21,1 17,3 5,6 ONO 5,6 1017,8 79 -
11:01 21,1 17,3 9,3 NO 9,3 1017,8 79 -
11:06 21,1 17,1 9,3 NO 9,3 1018,2 78 -
11:11 21,2 17,4 11,3 ONO 11,3 1017,8 79 -
11:16 21,3 17,3 5,6 Zuiden 5,6 1017,8 78 -
11:21 21,6 17,6 11,3 ZO 11,3 1017,8 78 -
11:26 21,9 17,4 13,0 ONO 13,0 1017,8 76 -
11:31 22,1 17,8 11,3 ONO 11,3 1017,8 77 -
11:36 22,3 17,6 14,8 NO 14,8 1017,8 75 -
11:41 22,3 17,6 9,3 Oosten 9,3 1017,8 75 -
11:46 22,1 17,3 11,1 ONO 11,1 1017,8 74 -
11:51 21,9 17,1 13,0 Oosten 13,0 1017,8 74 -
11:56 21,9 17,3 13,0 NO 13,0 1017,8 75 -
12:01 22,0 17,2 13,0 ZO 13,0 1017,8 74 -
12:06 22,1 17,1 14,8 ONO 14,8 1017,8 73 -
12:11 22,2 17,4 13,0 ONO 13,0 1017,8 74 -
12:16 22,3 17,0 14,8 NO 14,8 1017,8 72 -
12:21 22,3 17,2 11,3 NO 11,3 1018,2 73 -
12:26 22,4 17,4 9,3 ONO 9,3 1018,2 73 -
12:31 22,7 17,1 9,3 ONO 9,3 1018,2 71 -
12:36 22,7 16,9 16,7 NNO 16,7 1018,2 70 -
12:41 22,5 17,0 13,0 ONO 13,0 1017,8 71 -
12:46 22,6 16,8 5,6 ZW 5,6 1017,8 70 -
12:51 22,8 17,0 8,0 ONO 8,0 1017,8 70 -
12:56 22,9 16,7 7,4 Noorden 7,4 1017,8 68 -
13:01 22,9 16,9 14,8 ONO 14,8 1017,8 69 -
13:06 22,8 17,1 5,6 Oosten 5,6 1017,8 70 -
13:11 22,9 16,9 7,4 NNO 7,4 1017,8 69 -
13:16 23,2 16,9 9,3 NO 9,3 1017,8 68 -
13:21 23,4 16,5 6,4 NO 6,4 1017,8 65 -
13:23 23,5 16,6 5,6 NO 5,6 1017,8 65 -
13:28 23,8 17,1 14,8 WZW 14,8 1017,8 66 -
13:33 23,8 16,6 11,1 Oosten 11,1 1017,8 64 -
13:38 23,9 16,9 5,6 ONO 5,6 1017,8 65 -
13:43 24,1 17,6 9,3 ONO 9,3 1017,8 67 -
13:48 23,8 17,3 16,7 NO 16,7 1017,8 67 -
13:53 23,3 17,3 11,1 NO 11,1 1017,8 69 -
13:58 23,2 17,4 14,8 NO 14,8 1017,8 70 -
14:03 23,2 17,4 11,1 NO 11,1 1017,8 70 -
14:08 23,2 17,2 14,8 Oosten 14,8 1017,8 69 -
14:13 23,2 17,2 14,8 ONO 14,8 1017,8 69 -
14:18 23,2 17,2 18,5 NO 18,5 1017,8 69 -
14:23 23,1 17,1 14,8 OZO 14,8 1017,8 69 -
14:28 23,1 17,3 14,5 ONO 14,5 1017,8 70 -
14:33 23,1 17,1 12,9 NO 12,9 1017,8 69 -
14:39 23,1 17,3 14,8 ONO 14,8 1017,8 70 -
14:44 23,4 17,4 18,5 NNO 18,5 1017,8 69 -
14:49 23,8 18,0 18,5 NNO 18,5 1017,8 70 -
14:54 23,8 17,6 16,7 NO 16,7 1017,8 68 -
14:59 23,7 17,7 6,4 ONO 6,4 1017,8 69 -
15:04 23,7 17,9 9,3 NO 9,3 1017,8 70 -
15:09 23,9 18,3 14,5 ONO 14,5 1017,8 71 -
15:14 24,1 18,0 14,5 ONO 14,5 1017,8 69 -
15:19 24,2 18,1 16,7 Oosten 16,7 1017,8 69 -
15:24 24,3 18,0 18,5 ONO 18,5 1017,8 68 -
15:29 24,2 17,9 20,9 ONO 20,9 1017,8 68 -
15:34 24,2 17,9 16,7 OZO 16,7 1017,8 68 -
15:39 24,2 17,7 16,7 Noorden 16,7 1017,8 67 -
15:45 24,1 17,3 14,8 NO 14,8 1017,8 66 -
15:50 23,8 17,6 16,7 NNO 16,7 1017,8 68 -
15:55 23,8 17,5 8,0 ONO 19,3 1017,8 68 -
16:00 23,9 17,4 11,3 ONO 16,1 1017,8 67 -
16:05 23,9 17,7 11,1 ONO 11,1 1017,8 68 -
16:10 24,1 17,6 11,3 ONO 11,3 1017,8 67 -
16:15 24,2 17,7 14,8 NO 14,8 1017,8 67 -
16:20 24,2 17,7 13,0 ONO 13,0 1017,8 67 -
16:25 24,1 17,3 16,1 ONO 16,1 1017,8 66 -
16:30 23,9 17,2 18,5 ONO 18,5 1017,8 66 -
16:35 23,8 17,3 9,3 NNO 9,3 1017,8 67 -
16:40 23,8 17,1 14,8 Oosten 14,8 1017,8 66 -
16:45 23,8 17,3 11,1 Oosten 11,1 1017,8 67 -
16:50 23,8 17,3 16,7 NO 16,7 1017,8 67 -
16:55 23,6 17,1 11,3 NNO 11,3 1018,2 67 -

Download your copy of this data-set  here

Our weather-data as stored at Weather Underground. Script ontwikkeld door Jim McMurry. Aangepast voor de template door Leuven-Template.eu

U vindt ons ook hier:

Het Weer Aktueel

European Weather Network

Weather Underground

Benelux Weer Netwerk

Citizen Weather Observer Program (CWOP)

Apparatuur in gebruik:

Weerstation
Davis VP2

Weerprogramma
Weather Display

Weercomputer
My Computer

Webleverancier
WeservIT

Davis VP2

Weather Display

My Computer

WeservIT